sensor_id;sensor_type;location;lat;lon;timestamp;temperature;humidity
9116;DHT22;4593;53.652;10.168;2023-05-07T00:01:20;9.30;89.30
9116;DHT22;4593;53.652;10.168;2023-05-07T00:03:46;9.20;88.70
9116;DHT22;4593;53.652;10.168;2023-05-07T00:06:12;9.20;88.60
9116;DHT22;4593;53.652;10.168;2023-05-07T00:08:38;9.20;88.60
9116;DHT22;4593;53.652;10.168;2023-05-07T00:11:04;9.20;89.00
9116;DHT22;4593;53.652;10.168;2023-05-07T00:13:30;9.20;88.40
9116;DHT22;4593;53.652;10.168;2023-05-07T00:16:03;9.10;88.30
9116;DHT22;4593;53.652;10.168;2023-05-07T00:18:29;9.20;88.50
9116;DHT22;4593;53.652;10.168;2023-05-07T00:20:54;9.20;88.60
9116;DHT22;4593;53.652;10.168;2023-05-07T00:23:20;9.20;88.10
9116;DHT22;4593;53.652;10.168;2023-05-07T00:25:46;9.20;88.50
9116;DHT22;4593;53.652;10.168;2023-05-07T00:28:11;9.30;88.20
9116;DHT22;4593;53.652;10.168;2023-05-07T00:30:37;9.20;88.20
9116;DHT22;4593;53.652;10.168;2023-05-07T00:33:02;9.30;88.10
9116;DHT22;4593;53.652;10.168;2023-05-07T00:35:29;9.30;88.10
9116;DHT22;4593;53.652;10.168;2023-05-07T00:37:55;9.30;87.80
9116;DHT22;4593;53.652;10.168;2023-05-07T00:40:21;9.20;87.90
9116;DHT22;4593;53.652;10.168;2023-05-07T00:42:46;9.20;88.40
9116;DHT22;4593;53.652;10.168;2023-05-07T00:45:15;9.20;88.30
9116;DHT22;4593;53.652;10.168;2023-05-07T00:47:41;9.30;88.40
9116;DHT22;4593;53.652;10.168;2023-05-07T00:50:07;9.30;88.00
9116;DHT22;4593;53.652;10.168;2023-05-07T00:52:33;9.40;88.00
9116;DHT22;4593;53.652;10.168;2023-05-07T00:55:05;9.30;88.30
9116;DHT22;4593;53.652;10.168;2023-05-07T00:57:35;9.30;88.20
9116;DHT22;4593;53.652;10.168;2023-05-07T01:00:03;9.30;88.50
9116;DHT22;4593;53.652;10.168;2023-05-07T01:02:29;9.20;88.50
9116;DHT22;4593;53.652;10.168;2023-05-07T01:04:55;9.30;89.00
9116;DHT22;4593;53.652;10.168;2023-05-07T01:07:22;9.30;88.70
9116;DHT22;4593;53.652;10.168;2023-05-07T01:09:48;9.20;88.70
9116;DHT22;4593;53.652;10.168;2023-05-07T01:12:14;9.10;88.80
9116;DHT22;4593;53.652;10.168;2023-05-07T01:14:41;9.00;89.10
9116;DHT22;4593;53.652;10.168;2023-05-07T01:17:06;9.00;89.50
9116;DHT22;4593;53.652;10.168;2023-05-07T01:19:33;9.10;89.60
9116;DHT22;4593;53.652;10.168;2023-05-07T01:22:09;9.10;89.40
9116;DHT22;4593;53.652;10.168;2023-05-07T01:24:37;9.10;88.90
9116;DHT22;4593;53.652;10.168;2023-05-07T01:27:03;9.20;88.80
9116;DHT22;4593;53.652;10.168;2023-05-07T01:29:29;9.20;88.90
9116;DHT22;4593;53.652;10.168;2023-05-07T01:31:58;9.20;88.70
9116;DHT22;4593;53.652;10.168;2023-05-07T01:34:25;9.20;88.70
9116;DHT22;4593;53.652;10.168;2023-05-07T01:36:54;9.20;88.90
9116;DHT22;4593;53.652;10.168;2023-05-07T01:39:23;9.20;88.80
9116;DHT22;4593;53.652;10.168;2023-05-07T01:41:49;9.20;89.00
9116;DHT22;4593;53.652;10.168;2023-05-07T01:44:16;9.20;89.00
9116;DHT22;4593;53.652;10.168;2023-05-07T01:46:43;9.30;88.70
9116;DHT22;4593;53.652;10.168;2023-05-07T01:49:09;9.30;88.50
9116;DHT22;4593;53.652;10.168;2023-05-07T01:51:35;9.20;88.80
9116;DHT22;4593;53.652;10.168;2023-05-07T01:54:01;9.10;89.50
9116;DHT22;4593;53.652;10.168;2023-05-07T01:56:27;9.20;89.40
9116;DHT22;4593;53.652;10.168;2023-05-07T01:58:52;9.20;89.00
9116;DHT22;4593;53.652;10.168;2023-05-07T02:01:18;9.10;89.30
9116;DHT22;4593;53.652;10.168;2023-05-07T02:03:44;9.00;90.00
9116;DHT22;4593;53.652;10.168;2023-05-07T02:06:10;9.00;90.30
9116;DHT22;4593;53.652;10.168;2023-05-07T02:08:35;9.00;90.00
9116;DHT22;4593;53.652;10.168;2023-05-07T02:11:01;9.10;90.00
9116;DHT22;4593;53.652;10.168;2023-05-07T02:13:32;9.00;89.50
9116;DHT22;4593;53.652;10.168;2023-05-07T02:15:58;9.10;89.60
9116;DHT22;4593;53.652;10.168;2023-05-07T02:18:24;9.20;89.50
9116;DHT22;4593;53.652;10.168;2023-05-07T02:20:50;9.10;89.40
9116;DHT22;4593;53.652;10.168;2023-05-07T02:23:15;9.20;89.20
9116;DHT22;4593;53.652;10.168;2023-05-07T02:25:41;9.20;89.30
9116;DHT22;4593;53.652;10.168;2023-05-07T02:28:06;9.20;89.50
9116;DHT22;4593;53.652;10.168;2023-05-07T02:30:32;9.20;89.20
9116;DHT22;4593;53.652;10.168;2023-05-07T02:32:58;9.20;89.20
9116;DHT22;4593;53.652;10.168;2023-05-07T02:35:24;9.20;89.30
9116;DHT22;4593;53.652;10.168;2023-05-07T02:37:50;9.30;89.10
9116;DHT22;4593;53.652;10.168;2023-05-07T02:40:16;9.30;89.00
9116;DHT22;4593;53.652;10.168;2023-05-07T02:42:42;9.30;88.90
9116;DHT22;4593;53.652;10.168;2023-05-07T02:45:08;9.30;88.80
9116;DHT22;4593;53.652;10.168;2023-05-07T02:47:33;9.30;88.80
9116;DHT22;4593;53.652;10.168;2023-05-07T02:49:59;9.30;89.00
9116;DHT22;4593;53.652;10.168;2023-05-07T02:52:25;9.30;88.70
9116;DHT22;4593;53.652;10.168;2023-05-07T02:54:50;9.30;88.60
9116;DHT22;4593;53.652;10.168;2023-05-07T02:57:16;9.20;88.90
9116;DHT22;4593;53.652;10.168;2023-05-07T02:59:42;9.20;88.80
9116;DHT22;4593;53.652;10.168;2023-05-07T03:02:08;9.10;89.40
9116;DHT22;4593;53.652;10.168;2023-05-07T03:04:33;9.10;89.50
9116;DHT22;4593;53.652;10.168;2023-05-07T03:06:59;9.10;89.90
9116;DHT22;4593;53.652;10.168;2023-05-07T03:09:25;9.20;89.40
9116;DHT22;4593;53.652;10.168;2023-05-07T03:11:51;9.10;89.10
9116;DHT22;4593;53.652;10.168;2023-05-07T03:14:16;9.10;88.30
9116;DHT22;4593;53.652;10.168;2023-05-07T03:16:42;9.00;88.60
9116;DHT22;4593;53.652;10.168;2023-05-07T03:19:08;8.90;89.20
9116;DHT22;4593;53.652;10.168;2023-05-07T03:21:33;9.00;89.30
9116;DHT22;4593;53.652;10.168;2023-05-07T03:24:00;9.00;88.90
9116;DHT22;4593;53.652;10.168;2023-05-07T03:26:25;9.00;88.30
9116;DHT22;4593;53.652;10.168;2023-05-07T03:28:51;9.10;87.90
9116;DHT22;4593;53.652;10.168;2023-05-07T03:31:17;9.10;88.30
9116;DHT22;4593;53.652;10.168;2023-05-07T03:33:54;9.10;88.20
9116;DHT22;4593;53.652;10.168;2023-05-07T03:36:20;9.10;87.70
9116;DHT22;4593;53.652;10.168;2023-05-07T03:38:46;9.10;87.50
9116;DHT22;4593;53.652;10.168;2023-05-07T03:41:12;9.00;87.60
9116;DHT22;4593;53.652;10.168;2023-05-07T03:43:38;9.10;88.00
9116;DHT22;4593;53.652;10.168;2023-05-07T03:46:03;9.10;87.90
9116;DHT22;4593;53.652;10.168;2023-05-07T03:48:29;9.10;87.40
9116;DHT22;4593;53.652;10.168;2023-05-07T03:50:57;9.10;87.40
9116;DHT22;4593;53.652;10.168;2023-05-07T03:53:23;9.10;87.00
9116;DHT22;4593;53.652;10.168;2023-05-07T03:55:48;9.00;87.30
9116;DHT22;4593;53.652;10.168;2023-05-07T03:58:15;9.10;87.40
9116;DHT22;4593;53.652;10.168;2023-05-07T04:00:41;9.10;87.30
9116;DHT22;4593;53.652;10.168;2023-05-07T04:03:07;9.10;87.30
9116;DHT22;4593;53.652;10.168;2023-05-07T04:05:32;9.10;87.50
9116;DHT22;4593;53.652;10.168;2023-05-07T04:07:59;9.10;86.80
9116;DHT22;4593;53.652;10.168;2023-05-07T04:10:25;9.10;87.10
9116;DHT22;4593;53.652;10.168;2023-05-07T04:12:50;9.10;86.90
9116;DHT22;4593;53.652;10.168;2023-05-07T04:15:16;9.20;87.00
9116;DHT22;4593;53.652;10.168;2023-05-07T04:17:42;9.20;87.00
9116;DHT22;4593;53.652;10.168;2023-05-07T04:20:15;9.20;86.90
9116;DHT22;4593;53.652;10.168;2023-05-07T04:22:41;9.20;87.10
9116;DHT22;4593;53.652;10.168;2023-05-07T04:25:08;9.30;86.90
9116;DHT22;4593;53.652;10.168;2023-05-07T04:27:37;9.30;86.30
9116;DHT22;4593;53.652;10.168;2023-05-07T04:30:03;9.20;86.60
9116;DHT22;4593;53.652;10.168;2023-05-07T04:32:30;9.20;86.50
9116;DHT22;4593;53.652;10.168;2023-05-07T04:34:56;9.20;86.50
9116;DHT22;4593;53.652;10.168;2023-05-07T04:37:22;9.10;86.90
9116;DHT22;4593;53.652;10.168;2023-05-07T04:39:48;9.10;86.70
9116;DHT22;4593;53.652;10.168;2023-05-07T04:42:17;9.10;86.70
9116;DHT22;4593;53.652;10.168;2023-05-07T04:44:44;9.10;86.70
9116;DHT22;4593;53.652;10.168;2023-05-07T04:47:10;9.10;87.10
9116;DHT22;4593;53.652;10.168;2023-05-07T04:49:37;9.20;87.10
9116;DHT22;4593;53.652;10.168;2023-05-07T04:52:03;9.20;86.60
9116;DHT22;4593;53.652;10.168;2023-05-07T04:54:29;9.30;86.50
9116;DHT22;4593;53.652;10.168;2023-05-07T04:56:55;9.20;86.20
9116;DHT22;4593;53.652;10.168;2023-05-07T04:59:20;9.30;85.90
9116;DHT22;4593;53.652;10.168;2023-05-07T05:01:46;9.40;85.50
9116;DHT22;4593;53.652;10.168;2023-05-07T05:04:12;9.40;85.20
9116;DHT22;4593;53.652;10.168;2023-05-07T05:06:38;9.50;85.00
9116;DHT22;4593;53.652;10.168;2023-05-07T05:09:04;9.40;85.00
9116;DHT22;4593;53.652;10.168;2023-05-07T05:11:30;9.50;84.90
9116;DHT22;4593;53.652;10.168;2023-05-07T05:13:56;9.50;84.50
9116;DHT22;4593;53.652;10.168;2023-05-07T05:16:22;9.60;84.50
9116;DHT22;4593;53.652;10.168;2023-05-07T05:18:48;9.60;84.30
9116;DHT22;4593;53.652;10.168;2023-05-07T05:21:13;9.50;84.50
9116;DHT22;4593;53.652;10.168;2023-05-07T05:23:39;9.60;84.30
9116;DHT22;4593;53.652;10.168;2023-05-07T05:26:05;9.50;84.60
9116;DHT22;4593;53.652;10.168;2023-05-07T05:28:30;9.60;84.60
9116;DHT22;4593;53.652;10.168;2023-05-07T05:30:56;9.60;84.80
9116;DHT22;4593;53.652;10.168;2023-05-07T05:33:21;9.70;84.20
9116;DHT22;4593;53.652;10.168;2023-05-07T05:35:47;9.80;83.90
9116;DHT22;4593;53.652;10.168;2023-05-07T05:38:13;9.80;84.10
9116;DHT22;4593;53.652;10.168;2023-05-07T05:40:39;9.90;83.50
9116;DHT22;4593;53.652;10.168;2023-05-07T05:43:05;9.80;83.40
9116;DHT22;4593;53.652;10.168;2023-05-07T05:45:31;9.80;83.50
9116;DHT22;4593;53.652;10.168;2023-05-07T05:47:57;9.90;83.30
9116;DHT22;4593;53.652;10.168;2023-05-07T05:50:23;10.00;82.80
9116;DHT22;4593;53.652;10.168;2023-05-07T05:52:48;10.10;82.70
9116;DHT22;4593;53.652;10.168;2023-05-07T05:55:14;10.10;81.90
9116;DHT22;4593;53.652;10.168;2023-05-07T05:57:40;10.00;82.30
9116;DHT22;4593;53.652;10.168;2023-05-07T06:00:06;10.00;82.00
9116;DHT22;4593;53.652;10.168;2023-05-07T06:02:33;10.00;82.00
9116;DHT22;4593;53.652;10.168;2023-05-07T06:04:58;10.00;82.00
9116;DHT22;4593;53.652;10.168;2023-05-07T06:07:24;10.10;81.60
9116;DHT22;4593;53.652;10.168;2023-05-07T06:09:50;10.10;81.90
9116;DHT22;4593;53.652;10.168;2023-05-07T06:12:16;10.30;81.90
9116;DHT22;4593;53.652;10.168;2023-05-07T06:14:43;10.30;80.90
9116;DHT22;4593;53.652;10.168;2023-05-07T06:17:09;10.30;81.00
9116;DHT22;4593;53.652;10.168;2023-05-07T06:19:34;10.40;80.70
9116;DHT22;4593;53.652;10.168;2023-05-07T06:22:00;10.50;79.70
9116;DHT22;4593;53.652;10.168;2023-05-07T06:24:27;10.80;79.50
9116;DHT22;4593;53.652;10.168;2023-05-07T06:26:52;10.90;77.90
9116;DHT22;4593;53.652;10.168;2023-05-07T06:29:18;11.10;78.00
9116;DHT22;4593;53.652;10.168;2023-05-07T06:31:44;11.00;77.50
9116;DHT22;4593;53.652;10.168;2023-05-07T06:34:09;11.10;77.30
9116;DHT22;4593;53.652;10.168;2023-05-07T06:36:35;11.00;77.40
9116;DHT22;4593;53.652;10.168;2023-05-07T06:39:01;10.70;77.50
9116;DHT22;4593;53.652;10.168;2023-05-07T06:41:27;10.70;78.30
9116;DHT22;4593;53.652;10.168;2023-05-07T06:43:52;10.80;78.10
9116;DHT22;4593;53.652;10.168;2023-05-07T06:46:18;10.70;78.10
9116;DHT22;4593;53.652;10.168;2023-05-07T06:48:44;10.90;78.40
9116;DHT22;4593;53.652;10.168;2023-05-07T06:51:09;10.90;77.30
9116;DHT22;4593;53.652;10.168;2023-05-07T06:53:35;10.90;77.80
9116;DHT22;4593;53.652;10.168;2023-05-07T06:56:01;11.00;77.50
9116;DHT22;4593;53.652;10.168;2023-05-07T06:58:26;11.10;76.20
9116;DHT22;4593;53.652;10.168;2023-05-07T07:00:52;11.20;76.60
9116;DHT22;4593;53.652;10.168;2023-05-07T07:03:18;11.20;76.00
9116;DHT22;4593;53.652;10.168;2023-05-07T07:05:43;11.00;76.60
9116;DHT22;4593;53.652;10.168;2023-05-07T07:08:09;11.20;77.40
9116;DHT22;4593;53.652;10.168;2023-05-07T07:10:35;11.00;75.80
9116;DHT22;4593;53.652;10.168;2023-05-07T07:13:01;11.00;76.40
9116;DHT22;4593;53.652;10.168;2023-05-07T07:15:27;11.10;76.00
9116;DHT22;4593;53.652;10.168;2023-05-07T07:17:52;11.20;74.90
9116;DHT22;4593;53.652;10.168;2023-05-07T07:20:18;11.20;75.30
9116;DHT22;4593;53.652;10.168;2023-05-07T07:22:43;11.20;75.60
9116;DHT22;4593;53.652;10.168;2023-05-07T07:25:09;11.30;75.40
9116;DHT22;4593;53.652;10.168;2023-05-07T07:27:36;11.50;75.10
9116;DHT22;4593;53.652;10.168;2023-05-07T07:30:02;11.70;74.60
9116;DHT22;4593;53.652;10.168;2023-05-07T07:32:28;11.60;74.60
9116;DHT22;4593;53.652;10.168;2023-05-07T07:34:53;11.70;74.50
9116;DHT22;4593;53.652;10.168;2023-05-07T07:37:19;11.50;75.00
9116;DHT22;4593;53.652;10.168;2023-05-07T07:39:45;11.60;74.80
9116;DHT22;4593;53.652;10.168;2023-05-07T07:42:10;11.60;73.90
9116;DHT22;4593;53.652;10.168;2023-05-07T07:44:36;11.50;74.30
9116;DHT22;4593;53.652;10.168;2023-05-07T07:47:02;11.30;75.10
9116;DHT22;4593;53.652;10.168;2023-05-07T07:49:27;11.40;75.40
9116;DHT22;4593;53.652;10.168;2023-05-07T07:51:53;11.40;75.40
9116;DHT22;4593;53.652;10.168;2023-05-07T07:54:19;11.40;75.50
9116;DHT22;4593;53.652;10.168;2023-05-07T07:56:44;11.50;75.30
9116;DHT22;4593;53.652;10.168;2023-05-07T07:59:10;11.60;74.40
9116;DHT22;4593;53.652;10.168;2023-05-07T08:01:36;11.60;73.80
9116;DHT22;4593;53.652;10.168;2023-05-07T08:04:01;11.40;75.00
9116;DHT22;4593;53.652;10.168;2023-05-07T08:06:29;11.50;75.50
9116;DHT22;4593;53.652;10.168;2023-05-07T08:08:54;11.60;74.40
9116;DHT22;4593;53.652;10.168;2023-05-07T08:11:20;11.80;74.30
9116;DHT22;4593;53.652;10.168;2023-05-07T08:13:47;12.00;73.90
9116;DHT22;4593;53.652;10.168;2023-05-07T08:16:13;12.10;73.00
9116;DHT22;4593;53.652;10.168;2023-05-07T08:18:38;12.20;72.30
9116;DHT22;4593;53.652;10.168;2023-05-07T08:21:04;12.40;71.50
9116;DHT22;4593;53.652;10.168;2023-05-07T08:23:30;12.50;70.60
9116;DHT22;4593;53.652;10.168;2023-05-07T08:25:56;12.50;70.00
9116;DHT22;4593;53.652;10.168;2023-05-07T08:28:21;12.40;70.10
9116;DHT22;4593;53.652;10.168;2023-05-07T08:30:47;12.50;70.10
9116;DHT22;4593;53.652;10.168;2023-05-07T08:33:13;12.60;70.30
9116;DHT22;4593;53.652;10.168;2023-05-07T08:35:38;12.60;70.00
9116;DHT22;4593;53.652;10.168;2023-05-07T08:38:04;12.40;70.50
9116;DHT22;4593;53.652;10.168;2023-05-07T08:40:37;12.40;71.40
9116;DHT22;4593;53.652;10.168;2023-05-07T08:43:05;12.70;70.40
9116;DHT22;4593;53.652;10.168;2023-05-07T08:45:33;12.80;69.60
9116;DHT22;4593;53.652;10.168;2023-05-07T08:48:01;12.70;70.20
9116;DHT22;4593;53.652;10.168;2023-05-07T08:50:27;12.60;69.70
9116;DHT22;4593;53.652;10.168;2023-05-07T08:52:53;12.30;70.30
9116;DHT22;4593;53.652;10.168;2023-05-07T08:55:20;12.40;70.60
9116;DHT22;4593;53.652;10.168;2023-05-07T08:57:45;12.10;71.80
9116;DHT22;4593;53.652;10.168;2023-05-07T09:00:12;12.00;72.40
9116;DHT22;4593;53.652;10.168;2023-05-07T09:02:38;12.10;72.20
9116;DHT22;4593;53.652;10.168;2023-05-07T09:05:04;12.50;71.40
9116;DHT22;4593;53.652;10.168;2023-05-07T09:07:30;12.70;70.10
9116;DHT22;4593;53.652;10.168;2023-05-07T09:09:56;13.20;70.10
9116;DHT22;4593;53.652;10.168;2023-05-07T09:12:22;13.40;67.50
9116;DHT22;4593;53.652;10.168;2023-05-07T09:14:49;13.50;66.60
9116;DHT22;4593;53.652;10.168;2023-05-07T09:17:18;13.30;67.10
9116;DHT22;4593;53.652;10.168;2023-05-07T09:19:44;13.20;67.50
9116;DHT22;4593;53.652;10.168;2023-05-07T09:22:11;13.30;67.70
9116;DHT22;4593;53.652;10.168;2023-05-07T09:24:38;13.40;67.90
9116;DHT22;4593;53.652;10.168;2023-05-07T09:27:04;13.10;67.80
9116;DHT22;4593;53.652;10.168;2023-05-07T09:29:31;13.00;67.50
9116;DHT22;4593;53.652;10.168;2023-05-07T09:32:06;12.90;68.60
9116;DHT22;4593;53.652;10.168;2023-05-07T09:34:33;13.00;68.20
9116;DHT22;4593;53.652;10.168;2023-05-07T09:37:02;12.90;67.90
9116;DHT22;4593;53.652;10.168;2023-05-07T09:39:45;12.70;69.50
9116;DHT22;4593;53.652;10.168;2023-05-07T09:42:11;12.70;69.50
9116;DHT22;4593;53.652;10.168;2023-05-07T09:44:38;13.20;68.40
9116;DHT22;4593;53.652;10.168;2023-05-07T09:47:07;13.60;67.30
9116;DHT22;4593;53.652;10.168;2023-05-07T09:49:35;14.00;65.90
9116;DHT22;4593;53.652;10.168;2023-05-07T09:52:06;13.80;65.50
9116;DHT22;4593;53.652;10.168;2023-05-07T09:54:36;13.90;65.40
9116;DHT22;4593;53.652;10.168;2023-05-07T09:57:04;14.10;64.80
9116;DHT22;4593;53.652;10.168;2023-05-07T09:59:32;14.30;65.50
9116;DHT22;4593;53.652;10.168;2023-05-07T10:01:59;14.50;63.90
9116;DHT22;4593;53.652;10.168;2023-05-07T10:04:28;14.00;64.30
9116;DHT22;4593;53.652;10.168;2023-05-07T10:06:54;13.90;65.00
9116;DHT22;4593;53.652;10.168;2023-05-07T10:09:21;14.00;65.50
9116;DHT22;4593;53.652;10.168;2023-05-07T10:11:49;14.30;64.60
9116;DHT22;4593;53.652;10.168;2023-05-07T10:14:15;14.70;63.40
9116;DHT22;4593;53.652;10.168;2023-05-07T10:16:41;14.90;62.60
9116;DHT22;4593;53.652;10.168;2023-05-07T10:19:10;15.00;62.00
9116;DHT22;4593;53.652;10.168;2023-05-07T10:21:36;14.80;62.60
9116;DHT22;4593;53.652;10.168;2023-05-07T10:24:09;15.00;61.90
9116;DHT22;4593;53.652;10.168;2023-05-07T10:26:43;15.10;62.10
9116;DHT22;4593;53.652;10.168;2023-05-07T10:34:36;14.80;62.80
9116;DHT22;4593;53.652;10.168;2023-05-07T10:37:03;14.70;63.00
9116;DHT22;4593;53.652;10.168;2023-05-07T10:39:29;15.00;62.10
9116;DHT22;4593;53.652;10.168;2023-05-07T10:41:55;15.20;62.30
9116;DHT22;4593;53.652;10.168;2023-05-07T10:44:30;15.10;61.30
9116;DHT22;4593;53.652;10.168;2023-05-07T10:47:12;14.80;61.40
9116;DHT22;4593;53.652;10.168;2023-05-07T10:52:17;15.10;61.30
9116;DHT22;4593;53.652;10.168;2023-05-07T10:54:43;14.90;61.60
9116;DHT22;4593;53.652;10.168;2023-05-07T10:59:54;14.20;64.30
9116;DHT22;4593;53.652;10.168;2023-05-07T11:02:20;14.20;64.80
9116;DHT22;4593;53.652;10.168;2023-05-07T11:08:00;14.20;64.00
9116;DHT22;4593;53.652;10.168;2023-05-07T11:11:01;14.40;66.10
9116;DHT22;4593;53.652;10.168;2023-05-07T11:13:45;14.30;64.40
9116;DHT22;4593;53.652;10.168;2023-05-07T11:16:19;14.20;65.00
9116;DHT22;4593;53.652;10.168;2023-05-07T11:18:49;14.30;66.50
9116;DHT22;4593;53.652;10.168;2023-05-07T11:21:37;14.40;64.30
9116;DHT22;4593;53.652;10.168;2023-05-07T11:24:04;14.40;64.30
9116;DHT22;4593;53.652;10.168;2023-05-07T11:26:41;14.40;64.60
9116;DHT22;4593;53.652;10.168;2023-05-07T11:29:11;14.60;64.40
9116;DHT22;4593;53.652;10.168;2023-05-07T11:31:37;14.50;64.20
9116;DHT22;4593;53.652;10.168;2023-05-07T11:34:03;14.50;64.20
9116;DHT22;4593;53.652;10.168;2023-05-07T11:36:32;14.80;63.90
9116;DHT22;4593;53.652;10.168;2023-05-07T11:38:58;15.10;63.90
9116;DHT22;4593;53.652;10.168;2023-05-07T11:41:34;15.60;63.60
9116;DHT22;4593;53.652;10.168;2023-05-07T11:44:00;15.80;61.30
9116;DHT22;4593;53.652;10.168;2023-05-07T11:46:27;15.70;61.10
9116;DHT22;4593;53.652;10.168;2023-05-07T11:48:53;15.60;61.40
9116;DHT22;4593;53.652;10.168;2023-05-07T11:51:23;15.60;60.70
9116;DHT22;4593;53.652;10.168;2023-05-07T11:53:50;15.30;60.70
9116;DHT22;4593;53.652;10.168;2023-05-07T11:56:17;15.30;61.90
9116;DHT22;4593;53.652;10.168;2023-05-07T11:58:44;15.40;61.30
9116;DHT22;4593;53.652;10.168;2023-05-07T12:01:12;15.40;61.30
9116;DHT22;4593;53.652;10.168;2023-05-07T12:03:40;15.50;61.70
9116;DHT22;4593;53.652;10.168;2023-05-07T12:06:09;15.70;62.10
9116;DHT22;4593;53.652;10.168;2023-05-07T12:08:37;15.90;60.90
9116;DHT22;4593;53.652;10.168;2023-05-07T12:11:03;15.80;61.10
9116;DHT22;4593;53.652;10.168;2023-05-07T12:13:32;15.80;60.70
9116;DHT22;4593;53.652;10.168;2023-05-07T12:15:58;15.80;61.90
9116;DHT22;4593;53.652;10.168;2023-05-07T12:18:24;15.90;63.10
9116;DHT22;4593;53.652;10.168;2023-05-07T12:20:50;15.80;60.70
9116;DHT22;4593;53.652;10.168;2023-05-07T12:23:16;15.60;60.10
9116;DHT22;4593;53.652;10.168;2023-05-07T12:25:43;15.60;61.30
9116;DHT22;4593;53.652;10.168;2023-05-07T12:28:17;15.90;61.60
9116;DHT22;4593;53.652;10.168;2023-05-07T12:30:44;16.10;61.10
9116;DHT22;4593;53.652;10.168;2023-05-07T12:33:11;15.80;59.50
9116;DHT22;4593;53.652;10.168;2023-05-07T12:35:42;15.70;60.00
9116;DHT22;4593;53.652;10.168;2023-05-07T12:38:15;15.70;60.60
9116;DHT22;4593;53.652;10.168;2023-05-07T12:40:44;15.90;60.60
9116;DHT22;4593;53.652;10.168;2023-05-07T12:43:17;15.80;60.30
9116;DHT22;4593;53.652;10.168;2023-05-07T12:45:43;15.80;59.70
9116;DHT22;4593;53.652;10.168;2023-05-07T12:48:10;15.80;62.30
9116;DHT22;4593;53.652;10.168;2023-05-07T12:50:36;16.00;60.80
9116;DHT22;4593;53.652;10.168;2023-05-07T12:53:06;16.00;59.90
9116;DHT22;4593;53.652;10.168;2023-05-07T12:55:56;16.10;59.90
9116;DHT22;4593;53.652;10.168;2023-05-07T12:58:29;15.90;61.00
9116;DHT22;4593;53.652;10.168;2023-05-07T13:00:56;15.60;60.60
9116;DHT22;4593;53.652;10.168;2023-05-07T13:03:36;15.50;61.10
9116;DHT22;4593;53.652;10.168;2023-05-07T13:06:03;15.60;61.20
9116;DHT22;4593;53.652;10.168;2023-05-07T13:08:31;15.70;61.40
9116;DHT22;4593;53.652;10.168;2023-05-07T13:10:59;16.20;60.50
9116;DHT22;4593;53.652;10.168;2023-05-07T13:13:25;16.20;58.10
9116;DHT22;4593;53.652;10.168;2023-05-07T13:15:51;16.10;58.60
9116;DHT22;4593;53.652;10.168;2023-05-07T13:18:17;16.30;59.40
9116;DHT22;4593;53.652;10.168;2023-05-07T13:20:43;16.20;58.60
9116;DHT22;4593;53.652;10.168;2023-05-07T13:23:09;16.00;59.30
9116;DHT22;4593;53.652;10.168;2023-05-07T13:25:34;15.90;59.90
9116;DHT22;4593;53.652;10.168;2023-05-07T13:28:00;16.00;60.10
9116;DHT22;4593;53.652;10.168;2023-05-07T13:30:26;16.20;59.90
9116;DHT22;4593;53.652;10.168;2023-05-07T13:32:55;16.40;59.40
9116;DHT22;4593;53.652;10.168;2023-05-07T13:35:21;16.30;58.10
9116;DHT22;4593;53.652;10.168;2023-05-07T13:37:47;16.30;60.00
9116;DHT22;4593;53.652;10.168;2023-05-07T13:40:15;16.40;58.00
9116;DHT22;4593;53.652;10.168;2023-05-07T13:42:41;16.30;56.60
9116;DHT22;4593;53.652;10.168;2023-05-07T13:45:07;16.10;56.30
9116;DHT22;4593;53.652;10.168;2023-05-07T13:47:34;15.90;58.20
9116;DHT22;4593;53.652;10.168;2023-05-07T13:49:59;15.90;58.50
9116;DHT22;4593;53.652;10.168;2023-05-07T13:52:25;15.90;58.70
9116;DHT22;4593;53.652;10.168;2023-05-07T13:54:51;15.80;59.20
9116;DHT22;4593;53.652;10.168;2023-05-07T13:57:18;16.10;59.30
9116;DHT22;4593;53.652;10.168;2023-05-07T13:59:44;16.50;57.90
9116;DHT22;4593;53.652;10.168;2023-05-07T14:02:09;16.70;56.90
9116;DHT22;4593;53.652;10.168;2023-05-07T14:04:36;16.70;56.90
9116;DHT22;4593;53.652;10.168;2023-05-07T14:07:03;16.90;56.40
9116;DHT22;4593;53.652;10.168;2023-05-07T14:09:28;16.80;55.90
9116;DHT22;4593;53.652;10.168;2023-05-07T14:11:54;16.80;55.30
9116;DHT22;4593;53.652;10.168;2023-05-07T14:14:20;16.70;57.60
9116;DHT22;4593;53.652;10.168;2023-05-07T14:16:45;16.80;55.80
9116;DHT22;4593;53.652;10.168;2023-05-07T14:19:12;16.70;55.50
9116;DHT22;4593;53.652;10.168;2023-05-07T14:21:37;16.80;56.20
9116;DHT22;4593;53.652;10.168;2023-05-07T14:24:04;16.80;55.50
9116;DHT22;4593;53.652;10.168;2023-05-07T14:26:29;16.80;56.10
9116;DHT22;4593;53.652;10.168;2023-05-07T14:28:55;16.70;55.90
9116;DHT22;4593;53.652;10.168;2023-05-07T14:31:24;16.60;55.90
9116;DHT22;4593;53.652;10.168;2023-05-07T14:33:49;16.60;56.40
9116;DHT22;4593;53.652;10.168;2023-05-07T14:36:16;16.70;55.90
9116;DHT22;4593;53.652;10.168;2023-05-07T14:38:43;16.60;55.50
9116;DHT22;4593;53.652;10.168;2023-05-07T14:41:08;16.60;56.20
9116;DHT22;4593;53.652;10.168;2023-05-07T14:43:34;16.60;56.60
9116;DHT22;4593;53.652;10.168;2023-05-07T14:46:00;16.60;56.20
9116;DHT22;4593;53.652;10.168;2023-05-07T14:48:25;16.60;55.70
9116;DHT22;4593;53.652;10.168;2023-05-07T14:50:51;16.50;55.10
9116;DHT22;4593;53.652;10.168;2023-05-07T14:53:16;16.40;55.80
9116;DHT22;4593;53.652;10.168;2023-05-07T14:55:42;16.40;55.70
9116;DHT22;4593;53.652;10.168;2023-05-07T14:58:10;16.40;56.00
9116;DHT22;4593;53.652;10.168;2023-05-07T15:00:36;16.50;56.40
9116;DHT22;4593;53.652;10.168;2023-05-07T15:03:06;16.50;56.00
9116;DHT22;4593;53.652;10.168;2023-05-07T15:05:32;16.40;55.80
9116;DHT22;4593;53.652;10.168;2023-05-07T15:07:58;16.30;56.10
9116;DHT22;4593;53.652;10.168;2023-05-07T15:10:24;16.20;56.60
9116;DHT22;4593;53.652;10.168;2023-05-07T15:12:50;16.30;56.90
9116;DHT22;4593;53.652;10.168;2023-05-07T15:15:16;16.30;57.50
9116;DHT22;4593;53.652;10.168;2023-05-07T15:17:41;16.30;56.60
9116;DHT22;4593;53.652;10.168;2023-05-07T15:20:07;16.40;56.90
9116;DHT22;4593;53.652;10.168;2023-05-07T15:22:34;16.40;56.10
9116;DHT22;4593;53.652;10.168;2023-05-07T15:25:01;16.30;56.60
9116;DHT22;4593;53.652;10.168;2023-05-07T15:27:27;16.30;56.60
9116;DHT22;4593;53.652;10.168;2023-05-07T15:29:52;16.30;56.90
9116;DHT22;4593;53.652;10.168;2023-05-07T15:32:18;16.30;56.50
9116;DHT22;4593;53.652;10.168;2023-05-07T15:34:44;16.40;57.90
9116;DHT22;4593;53.652;10.168;2023-05-07T15:37:10;16.50;56.60
9116;DHT22;4593;53.652;10.168;2023-05-07T15:39:36;16.40;56.70
9116;DHT22;4593;53.652;10.168;2023-05-07T15:42:02;16.30;56.70
9116;DHT22;4593;53.652;10.168;2023-05-07T15:44:28;16.20;57.00
9116;DHT22;4593;53.652;10.168;2023-05-07T15:46:55;16.20;57.40
9116;DHT22;4593;53.652;10.168;2023-05-07T15:49:21;16.20;57.30
9116;DHT22;4593;53.652;10.168;2023-05-07T15:51:47;16.30;57.00
9116;DHT22;4593;53.652;10.168;2023-05-07T15:54:13;16.30;56.70
9116;DHT22;4593;53.652;10.168;2023-05-07T15:56:39;16.30;57.50
9116;DHT22;4593;53.652;10.168;2023-05-07T15:59:04;16.20;57.40
9116;DHT22;4593;53.652;10.168;2023-05-07T16:01:30;16.10;58.10
9116;DHT22;4593;53.652;10.168;2023-05-07T16:03:57;16.00;58.00